createdAt,value
2022-11-17T00:00:05.277Z,986.76
2022-11-17T00:01:05.287Z,986.74
2022-11-17T00:02:05.277Z,986.74
2022-11-17T00:03:05.233Z,986.73
2022-11-17T00:04:05.219Z,986.75
2022-11-17T00:05:05.210Z,986.70
2022-11-17T00:06:05.215Z,986.67
2022-11-17T00:07:05.244Z,986.67
2022-11-17T00:08:05.192Z,986.68
2022-11-17T00:09:05.152Z,986.62
2022-11-17T00:10:05.199Z,986.58
2022-11-17T00:11:05.130Z,986.55
2022-11-17T00:12:05.121Z,986.58
2022-11-17T00:13:05.117Z,986.58
2022-11-17T00:14:05.132Z,986.54
2022-11-17T00:15:05.062Z,986.52
2022-11-17T00:16:05.109Z,986.49
2022-11-17T00:17:05.042Z,986.47
2022-11-17T00:18:05.041Z,986.49
2022-11-17T00:19:05.012Z,986.48
2022-11-17T00:20:05.041Z,986.42
2022-11-17T00:21:05.005Z,986.40
2022-11-17T00:22:04.986Z,986.38
2022-11-17T00:23:04.956Z,986.34
2022-11-17T00:24:04.962Z,986.36
2022-11-17T00:25:04.931Z,986.34
2022-11-17T00:26:04.972Z,986.34
2022-11-17T00:27:07.300Z,986.30
2022-11-17T00:28:04.897Z,986.26
2022-11-17T00:29:04.876Z,986.31
2022-11-17T00:30:06.062Z,986.32
2022-11-17T00:31:04.872Z,986.29
2022-11-17T00:32:04.853Z,986.27
2022-11-17T00:33:04.820Z,986.18
2022-11-17T00:34:06.110Z,986.21
2022-11-17T00:35:04.814Z,986.22
2022-11-17T00:36:04.807Z,986.22
2022-11-17T00:37:07.141Z,986.20
2022-11-17T00:38:04.778Z,986.21
2022-11-17T00:39:04.746Z,986.17
2022-11-17T00:40:27.839Z,986.18
2022-11-17T00:41:04.750Z,986.17
2022-11-17T00:42:25.824Z,986.10
2022-11-17T00:43:04.696Z,986.06
2022-11-17T00:44:04.707Z,986.07
2022-11-17T00:45:04.682Z,986.07
2022-11-17T00:46:04.672Z,986.03
2022-11-17T00:47:04.643Z,986.04
2022-11-17T00:48:04.630Z,986.05
2022-11-17T00:49:04.620Z,986.02
2022-11-17T00:50:04.601Z,985.97
2022-11-17T00:51:04.629Z,985.95
2022-11-17T00:52:04.768Z,985.90
2022-11-17T00:53:04.619Z,985.91
2022-11-17T00:54:04.554Z,985.89
2022-11-17T00:55:04.562Z,985.89
2022-11-17T00:56:04.527Z,985.83
2022-11-17T00:57:04.612Z,985.80
2022-11-17T00:58:04.495Z,985.77
2022-11-17T00:59:04.495Z,985.75
2022-11-17T01:00:04.480Z,985.75
2022-11-17T01:01:04.485Z,985.71
2022-11-17T01:02:04.471Z,985.71
2022-11-17T01:03:04.426Z,985.72
2022-11-17T01:04:04.625Z,985.64
2022-11-17T01:05:04.407Z,985.67
2022-11-17T01:06:04.411Z,985.62
2022-11-17T01:07:04.618Z,985.64
2022-11-17T01:08:04.359Z,985.59
2022-11-17T01:09:04.353Z,985.55
2022-11-17T01:10:04.405Z,985.58
2022-11-17T01:11:04.422Z,985.53
2022-11-17T01:35:40.166Z,985.13
2022-11-17T01:36:34.805Z,985.02
2022-11-17T01:37:34.820Z,985.09
2022-11-17T01:38:34.779Z,985.03
2022-11-17T01:39:34.775Z,985.06
2022-11-17T01:40:34.751Z,984.98
2022-11-17T01:41:34.744Z,984.97
2022-11-17T01:42:34.744Z,984.99
2022-11-17T01:43:34.874Z,984.93
2022-11-17T01:44:34.697Z,984.87
2022-11-17T01:45:34.691Z,984.88
2022-11-17T01:46:34.686Z,984.88
2022-11-17T01:47:34.665Z,984.82
2022-11-17T01:48:34.649Z,984.85
2022-11-17T01:49:34.642Z,984.82
2022-11-17T01:50:34.627Z,984.82
2022-11-17T01:51:34.615Z,984.81
2022-11-17T01:52:34.603Z,984.79
2022-11-17T01:53:35.162Z,984.77
2022-11-17T01:54:34.572Z,984.79
2022-11-17T01:55:34.560Z,984.80
2022-11-17T01:56:34.562Z,984.75
2022-11-17T01:57:34.571Z,984.78
2022-11-17T01:58:34.524Z,984.78
2022-11-17T01:59:34.503Z,984.77
2022-11-17T02:00:34.494Z,984.72
2022-11-17T02:01:34.538Z,984.74
2022-11-17T02:02:34.469Z,984.63
2022-11-17T02:03:35.001Z,984.70
2022-11-17T02:04:34.451Z,984.68
2022-11-17T02:05:34.434Z,984.70
2022-11-17T02:06:34.407Z,984.65
2022-11-17T02:07:39.893Z,984.66
2022-11-17T02:08:34.401Z,984.66
2022-11-17T02:09:34.371Z,984.63
2022-11-17T02:10:34.631Z,984.65
2022-11-17T02:11:34.353Z,984.53
2022-11-17T02:12:34.364Z,984.49
2022-11-17T02:13:34.556Z,984.47
2022-11-17T02:14:34.299Z,984.42
2022-11-17T02:15:34.291Z,984.41
2022-11-17T02:16:34.269Z,984.39
2022-11-17T02:17:34.273Z,984.30
2022-11-17T02:18:34.243Z,984.32
2022-11-17T02:19:34.265Z,984.31
2022-11-17T02:20:34.224Z,984.32
2022-11-17T02:21:34.210Z,984.23
2022-11-17T02:22:34.201Z,984.27
2022-11-17T02:23:34.573Z,984.17
2022-11-17T02:24:34.167Z,984.13
2022-11-17T02:25:34.181Z,984.18
2022-11-17T02:26:34.156Z,984.15
2022-11-17T02:27:34.159Z,984.07
2022-11-17T02:28:34.140Z,983.98
2022-11-17T02:29:34.101Z,983.99
2022-11-17T02:30:34.092Z,984.01
2022-11-17T02:31:34.071Z,983.97
2022-11-17T02:32:34.081Z,984.02
2022-11-17T02:33:34.410Z,984.02
2022-11-17T02:34:34.021Z,984.02
2022-11-17T02:35:34.136Z,984.04
2022-11-17T02:36:33.996Z,983.95
2022-11-17T02:37:33.991Z,983.91
2022-11-17T02:38:33.981Z,983.94
2022-11-17T02:39:33.985Z,983.88
2022-11-17T02:40:34.023Z,983.88
2022-11-17T02:41:34.018Z,983.94
2022-11-17T02:42:34.775Z,983.92
2022-11-17T02:43:34.361Z,983.88
2022-11-17T02:44:33.886Z,983.91
2022-11-17T02:45:33.903Z,983.89
2022-11-17T02:46:33.869Z,983.85
2022-11-17T02:47:33.860Z,983.77
2022-11-17T02:48:33.851Z,983.78
2022-11-17T02:49:33.825Z,983.74
2022-11-17T02:50:32.805Z,983.75
2022-11-17T02:51:33.823Z,983.71
2022-11-17T02:52:32.782Z,983.69
2022-11-17T02:53:34.428Z,983.69
2022-11-17T02:54:33.760Z,983.65
2022-11-17T02:55:33.759Z,983.66
2022-11-17T02:56:33.729Z,983.65
2022-11-17T02:57:33.733Z,983.70
2022-11-17T02:58:33.705Z,983.66
2022-11-17T02:59:33.732Z,983.60
2022-11-17T03:00:33.672Z,983.62
2022-11-17T03:01:33.715Z,983.57
2022-11-17T03:02:33.668Z,983.57
2022-11-17T03:03:34.054Z,983.57
2022-11-17T03:04:33.634Z,983.60
2022-11-17T03:05:33.614Z,983.45
2022-11-17T03:06:33.598Z,983.43
2022-11-17T03:07:33.659Z,983.42
2022-11-17T03:08:33.589Z,983.43
2022-11-17T03:09:32.571Z,983.40
2022-11-17T03:10:33.560Z,983.35
2022-11-17T03:11:32.540Z,983.39
2022-11-17T03:12:33.532Z,983.39
2022-11-17T03:13:33.798Z,983.37
2022-11-17T03:14:33.487Z,983.43
2022-11-17T03:15:33.476Z,983.40
2022-11-17T03:16:33.466Z,983.35
2022-11-17T03:17:33.452Z,983.33
2022-11-17T03:18:33.446Z,983.30
2022-11-17T03:19:33.470Z,983.23
2022-11-17T03:20:33.417Z,983.29
2022-11-17T03:21:33.399Z,983.30
2022-11-17T03:22:33.384Z,983.27
2022-11-17T03:23:33.760Z,983.31
2022-11-17T03:24:33.351Z,983.27
2022-11-17T03:25:33.381Z,983.30
2022-11-17T03:26:33.328Z,983.21
2022-11-17T03:27:33.317Z,983.24
2022-11-17T03:28:33.303Z,983.15
2022-11-17T03:29:33.290Z,983.12
2022-11-17T03:30:37.435Z,983.14
2022-11-17T03:31:33.268Z,983.11
2022-11-17T03:32:33.247Z,983.08
2022-11-17T03:33:33.588Z,983.09
2022-11-17T03:34:33.235Z,983.09
2022-11-17T03:35:33.210Z,983.11
2022-11-17T03:36:33.198Z,983.12
2022-11-17T03:37:33.181Z,983.09
2022-11-17T03:38:33.163Z,983.05
2022-11-17T03:39:33.156Z,983.03
2022-11-17T03:40:33.140Z,983.06
2022-11-17T03:41:33.126Z,983.05
2022-11-17T03:42:33.106Z,983.02
2022-11-17T03:43:33.378Z,982.99
2022-11-17T03:44:33.097Z,982.92
2022-11-17T03:45:33.167Z,983.01
2022-11-17T03:46:33.060Z,983.00
2022-11-17T03:47:33.055Z,982.96
2022-11-17T03:48:33.033Z,982.92
2022-11-17T03:49:33.016Z,982.92
2022-11-17T03:50:32.997Z,982.88
2022-11-17T03:51:32.999Z,982.87
2022-11-17T03:52:32.971Z,982.91
2022-11-17T03:53:33.322Z,982.87
2022-11-17T03:54:32.953Z,982.92
2022-11-17T03:55:32.949Z,982.87
2022-11-17T03:56:32.925Z,982.83
2022-11-17T03:57:32.914Z,982.82
2022-11-17T03:58:32.899Z,982.80
2022-11-17T03:59:32.892Z,982.83
2022-11-17T04:00:32.880Z,982.81
2022-11-17T04:01:32.879Z,982.78
2022-11-17T04:02:32.846Z,982.74
2022-11-17T04:03:33.170Z,982.76
2022-11-17T04:04:32.825Z,982.77
2022-11-17T04:05:32.806Z,982.77
2022-11-17T04:06:32.787Z,982.81
2022-11-17T04:07:32.868Z,982.74
2022-11-17T04:08:32.754Z,982.75
2022-11-17T04:09:32.770Z,982.77
2022-11-17T04:10:32.755Z,982.74
2022-11-17T04:11:32.732Z,982.77
2022-11-17T04:12:32.706Z,982.70
2022-11-17T04:13:32.914Z,982.67
2022-11-17T04:14:32.703Z,982.64
2022-11-17T08:21:39.213Z,981.76
2022-11-17T08:22:39.922Z,981.76
2022-11-17T08:23:39.917Z,981.75
2022-11-17T08:24:39.902Z,981.71
2022-11-17T08:25:39.886Z,981.76
2022-11-17T08:26:39.880Z,981.77
2022-11-17T08:27:39.878Z,981.76
2022-11-17T08:28:40.340Z,981.78
2022-11-17T08:29:39.838Z,981.78
2022-11-17T08:30:39.826Z,981.85
2022-11-17T08:31:39.819Z,981.87
2022-11-17T08:32:39.813Z,981.87
2022-11-17T08:33:39.818Z,981.82
2022-11-17T08:34:39.794Z,981.83
2022-11-17T08:35:39.762Z,981.85
2022-11-17T08:36:39.746Z,981.88
2022-11-17T08:37:39.768Z,981.90
2022-11-17T08:38:39.773Z,981.86
2022-11-17T08:39:39.708Z,981.88
2022-11-17T08:40:39.698Z,981.94
2022-11-17T08:41:39.738Z,981.97
2022-11-17T08:42:39.666Z,982.00
2022-11-17T08:43:39.636Z,982.04
2022-11-17T08:44:40.111Z,982.05
2022-11-17T08:45:39.604Z,982.06
2022-11-17T08:46:39.628Z,982.08
2022-11-17T08:47:39.580Z,982.08
2022-11-17T08:48:39.725Z,982.10
2022-11-17T08:49:39.581Z,982.12
2022-11-17T08:50:39.575Z,982.14
2022-11-17T08:51:39.543Z,982.15
2022-11-17T08:52:39.540Z,982.12
2022-11-17T08:53:39.498Z,982.20
2022-11-17T08:54:39.503Z,982.21
2022-11-17T08:55:41.319Z,982.24
2022-11-17T08:56:39.495Z,982.27
2022-11-17T08:57:39.456Z,982.30
2022-11-17T08:58:39.562Z,982.27
2022-11-17T08:59:39.475Z,982.27
2022-11-17T09:00:39.477Z,982.29
2022-11-17T09:01:39.457Z,982.30
2022-11-17T09:02:39.394Z,982.35
2022-11-17T09:03:39.383Z,982.26
2022-11-17T09:04:39.422Z,982.29
2022-11-17T09:05:39.380Z,982.29
2022-11-17T09:06:39.401Z,982.36
2022-11-17T09:07:39.357Z,982.36
2022-11-17T09:08:45.452Z,982.38
2022-11-17T09:09:39.403Z,982.32
2022-11-17T09:10:39.265Z,982.35
2022-11-17T09:11:39.254Z,982.37
2022-11-17T09:12:39.281Z,982.37
2022-11-17T09:13:39.227Z,982.40
2022-11-17T09:14:39.215Z,982.43
2022-11-17T09:15:39.224Z,982.38
2022-11-17T09:16:39.256Z,982.45
2022-11-17T09:17:39.181Z,982.46
2022-11-17T09:18:39.725Z,982.48
2022-11-17T09:19:39.151Z,982.49
2022-11-17T09:20:45.297Z,982.53
2022-11-17T09:22:51.942Z,982.49
2022-11-17T09:23:52.879Z,982.48
2022-11-17T09:24:52.875Z,982.49
2022-11-17T09:25:52.896Z,982.50
2022-11-17T09:26:54.040Z,982.53
2022-11-17T09:27:52.852Z,982.50
2022-11-17T09:28:52.835Z,982.57
2022-11-17T09:29:52.841Z,982.57
2022-11-17T09:30:52.800Z,982.67
2022-11-17T09:31:52.825Z,982.64
2022-11-17T09:32:52.765Z,982.66
2022-11-17T09:33:52.786Z,982.65
2022-11-17T09:34:52.825Z,982.62
2022-11-17T09:35:52.755Z,982.66
2022-11-17T09:36:52.710Z,982.69
2022-11-17T09:37:52.745Z,982.70
2022-11-17T09:38:52.690Z,982.71
2022-11-17T09:39:52.674Z,982.70
2022-11-17T09:40:52.679Z,982.73
2022-11-17T09:41:52.650Z,982.73
2022-11-17T09:42:52.644Z,982.76
2022-11-17T09:43:52.656Z,982.76
2022-11-17T09:44:52.653Z,982.76
2022-11-17T09:45:53.755Z,982.77
2022-11-17T09:46:52.635Z,982.77
2022-11-17T09:48:02.366Z,982.80
2022-11-17T09:48:52.728Z,982.85
2022-11-17T09:49:58.396Z,982.89
2022-11-17T09:50:52.561Z,982.89
2022-11-17T09:51:52.547Z,982.84
2022-11-17T10:05:41.437Z,982.94
2022-11-17T10:06:40.652Z,982.91
2022-11-17T10:07:40.630Z,982.96
2022-11-17T10:08:40.612Z,982.93
2022-11-17T10:09:40.623Z,982.95
2022-11-17T10:10:40.581Z,982.94
2022-11-17T10:11:40.583Z,982.91
2022-11-17T10:12:40.562Z,982.93
2022-11-17T10:13:40.540Z,982.95
2022-11-17T10:14:40.525Z,982.91
2022-11-17T10:15:40.535Z,982.96
2022-11-17T10:16:40.525Z,982.91
2022-11-17T10:17:40.491Z,982.96
2022-11-17T10:18:40.510Z,982.94
2022-11-17T10:19:40.460Z,982.94
2022-11-17T10:20:40.450Z,982.90
2022-11-17T10:21:40.455Z,982.92
2022-11-17T10:22:40.412Z,982.92
2022-11-17T10:23:46.018Z,982.96
2022-11-17T10:24:40.401Z,982.87
2022-11-17T10:25:40.387Z,982.88
2022-11-17T10:26:40.381Z,982.91
2022-11-17T10:27:40.360Z,982.93
2022-11-17T10:28:40.500Z,982.94
2022-11-17T10:29:40.353Z,982.94
2022-11-17T10:30:40.307Z,982.92
2022-11-17T10:31:40.457Z,982.94
2022-11-17T10:32:45.350Z,982.95
2022-11-17T10:33:41.306Z,982.93
2022-11-17T10:34:41.634Z,982.90
2022-11-17T10:35:40.249Z,982.96
2022-11-17T10:36:40.235Z,982.91
2022-11-17T10:37:40.231Z,982.95
2022-11-17T10:38:40.208Z,982.94
2022-11-17T10:39:40.199Z,982.94
2022-11-17T10:40:40.191Z,982.96
2022-11-17T10:41:40.179Z,982.91
2022-11-17T10:42:40.692Z,982.92
2022-11-17T10:43:40.136Z,982.91
2022-11-17T10:44:40.130Z,982.90
2022-11-17T10:45:40.115Z,982.91
2022-11-17T10:46:46.304Z,982.92
2022-11-17T10:47:40.116Z,982.98
2022-11-17T10:48:40.075Z,982.93
2022-11-17T10:49:40.067Z,982.92
2022-11-17T10:50:40.060Z,982.95
2022-11-17T10:51:40.042Z,982.97
2022-11-17T10:52:40.034Z,982.96
2022-11-17T10:53:45.563Z,982.99
2022-11-17T11:19:13.771Z,983.05
2022-11-17T11:20:13.255Z,983.03
2022-11-17T11:21:13.268Z,982.98
2022-11-17T11:22:16.979Z,983.01
2022-11-17T11:23:13.216Z,982.96
2022-11-17T11:24:13.186Z,983.00
2022-11-17T11:25:13.379Z,983.03
2022-11-17T11:26:13.170Z,983.03
2022-11-17T11:27:13.142Z,983.02
2022-11-17T11:28:13.146Z,983.06
2022-11-17T11:29:13.325Z,983.02
2022-11-17T11:30:13.118Z,983.04
2022-11-17T11:31:13.093Z,983.09
2022-11-17T11:32:13.117Z,983.04
2022-11-17T11:33:13.074Z,983.08
2022-11-17T11:34:13.067Z,983.09
2022-11-17T11:35:17.132Z,983.15
2022-11-17T11:36:13.045Z,983.14
2022-11-17T11:37:13.036Z,983.11
2022-11-17T11:38:13.027Z,983.12
2022-11-17T11:39:13.308Z,983.18
2022-11-17T11:40:12.988Z,983.14
2022-11-17T11:41:12.960Z,983.14
2022-11-17T11:42:12.954Z,983.18
2022-11-17T11:43:12.933Z,983.23
2022-11-17T11:44:12.919Z,983.23
2022-11-17T11:45:12.911Z,983.23
2022-11-17T11:46:12.915Z,983.20
2022-11-17T11:47:12.892Z,983.20
2022-11-17T11:48:12.887Z,-34.65
2022-11-17T11:49:12.842Z,-34.65
2022-11-17T11:50:12.856Z,-34.65
2022-11-17T11:51:12.817Z,-34.65
2022-11-17T11:52:12.807Z,-34.65
2022-11-17T11:53:12.791Z,-34.65
2022-11-17T11:54:13.184Z,-34.65
2022-11-17T11:55:12.767Z,-34.65
2022-11-17T11:56:12.796Z,-34.65
2022-11-17T11:57:12.867Z,-34.65
2022-11-17T11:58:12.741Z,-34.65
2022-11-17T11:59:12.707Z,-34.65
2022-11-17T12:00:12.777Z,-34.65
2022-11-17T12:01:12.696Z,-34.65
2022-11-17T12:02:12.764Z,-34.65
2022-11-17T12:03:12.687Z,-34.65
2022-11-17T12:04:13.106Z,-34.65
2022-11-17T12:05:12.617Z,-34.65
2022-11-17T12:06:12.630Z,-34.65
2022-11-17T12:07:12.620Z,-34.65
2022-11-17T12:08:12.602Z,-34.65
2022-11-17T12:09:12.581Z,-34.65
2022-11-17T12:10:12.728Z,-34.65
2022-11-17T12:11:12.582Z,-34.65
2022-11-17T12:12:12.555Z,-34.65
2022-11-17T12:13:12.545Z,-34.65
2022-11-17T12:14:12.867Z,-34.65
2022-11-17T12:15:12.491Z,-34.65
2022-11-17T12:16:12.483Z,-34.65
2022-11-17T12:17:12.460Z,-34.65
2022-11-17T12:18:12.469Z,-34.65
2022-11-17T12:19:12.448Z,-34.65
2022-11-17T12:20:12.436Z,-34.65
2022-11-17T12:21:12.410Z,-34.65
2022-11-17T12:22:12.406Z,-34.65
2022-11-17T12:23:12.406Z,-34.65
2022-11-17T12:24:12.670Z,-34.65
2022-11-17T12:25:12.350Z,-34.65
2022-11-17T12:26:12.344Z,-34.65
2022-11-17T12:27:12.341Z,-34.65
2022-11-17T12:28:12.327Z,-34.65
2022-11-17T12:29:12.321Z,-34.65
2022-11-17T12:30:12.306Z,-34.65
2022-11-17T12:31:12.280Z,-34.65
2022-11-17T12:32:12.274Z,-34.65
2022-11-17T12:33:12.253Z,-34.65
2022-11-17T12:34:12.512Z,-34.65
2022-11-17T12:35:12.336Z,-34.65
2022-11-17T12:36:12.205Z,-34.65
2022-11-17T12:37:12.242Z,-34.65
2022-11-17T12:38:12.207Z,-34.65
2022-11-17T12:39:12.171Z,-34.65
2022-11-17T12:40:12.156Z,-34.65
2022-11-17T12:41:12.162Z,-34.65
2022-11-17T12:42:12.146Z,-34.65
2022-11-17T12:43:12.179Z,-34.65
2022-11-17T12:44:12.445Z,-34.65
2022-11-17T12:45:12.109Z,-34.65
2022-11-17T12:46:12.059Z,-34.65
2022-11-17T12:47:12.072Z,-34.65
2022-11-17T12:48:32.881Z,-34.65
2022-11-17T12:49:12.159Z,-34.65
2022-11-17T12:50:12.033Z,-34.65
2022-11-17T12:51:12.010Z,-34.65
2022-11-17T12:52:11.994Z,-34.65
2022-11-17T12:53:12.038Z,-34.65
2022-11-17T12:54:12.317Z,-34.65
2022-11-17T12:55:11.962Z,-34.65
2022-11-17T12:56:11.943Z,-34.65
2022-11-17T12:57:11.952Z,-34.65
2022-11-17T12:58:11.922Z,-34.65
2022-11-17T12:59:12.001Z,-34.65
2022-11-17T13:00:11.895Z,-34.65
2022-11-17T13:01:11.961Z,-34.65
2022-11-17T13:02:11.859Z,-34.65
2022-11-17T13:03:11.871Z,-34.65
2022-11-17T13:04:12.325Z,-34.65
2022-11-17T13:05:11.843Z,-34.65
2022-11-17T13:07:11.838Z,-34.65
2022-11-17T13:08:11.864Z,-34.65
2022-11-17T13:09:11.779Z,-34.65
2022-11-17T13:10:11.767Z,-34.65
2022-11-17T13:11:11.761Z,-34.65
2022-11-17T13:12:11.734Z,-34.65
2022-11-17T13:13:11.751Z,-34.65
2022-11-17T13:14:11.151Z,-34.65
2022-11-17T13:15:11.688Z,-34.65
2022-11-17T13:16:11.707Z,-34.65
2022-11-17T13:17:11.658Z,-34.65
2022-11-17T13:18:12.773Z,-34.65
2022-11-17T13:19:11.655Z,-34.65
2022-11-17T13:20:11.653Z,-34.65
2022-11-17T13:21:11.609Z,-34.65
2022-11-17T13:22:12.715Z,-34.65
2022-11-17T13:23:11.624Z,-34.65
2022-11-17T13:24:43.456Z,-34.65
2022-11-17T13:25:11.552Z,-34.65
2022-11-17T13:29:39.783Z,983.95
2022-11-17T13:30:21.581Z,983.95
2022-11-17T13:45:12.614Z,984.06
2022-11-17T13:46:13.607Z,984.09
2022-11-17T13:48:57.998Z,984.15
2022-11-17T13:49:59.006Z,984.11
2022-11-17T13:56:22.177Z,984.22
2022-11-17T13:56:57.091Z,984.22
2022-11-17T14:10:50.081Z,984.28
2022-11-17T14:11:51.043Z,984.31
2022-11-17T14:44:49.500Z,984.44
2022-11-17T14:45:50.481Z,984.46
2022-11-17T14:46:50.470Z,984.41
2022-11-17T14:49:53.258Z,984.42
2022-11-17T14:50:49.692Z,984.39
2022-11-17T14:53:39.194Z,984.47
2022-11-17T14:54:25.931Z,984.48
2022-11-17T14:59:54.484Z,984.46
2022-11-17T15:00:55.484Z,984.49
2022-11-17T15:02:16.461Z,984.47
2022-11-17T15:02:55.450Z,984.53
2022-11-17T15:03:57.637Z,984.50
2022-11-17T15:04:56.120Z,984.47
2022-11-17T15:06:19.846Z,984.45
2022-11-17T15:06:55.467Z,984.48
2022-11-17T15:07:55.409Z,984.44
2022-11-17T15:10:52.948Z,984.51
2022-11-17T15:11:53.925Z,984.54
2022-11-17T15:12:53.923Z,984.54
2022-11-17T15:13:56.058Z,984.55
2022-11-17T15:14:53.913Z,984.57
2022-11-17T15:15:57.142Z,984.56
2022-11-17T15:16:53.870Z,984.55
2022-11-17T15:17:53.847Z,984.57
2022-11-17T15:18:53.844Z,984.56
2022-11-17T15:19:53.853Z,984.58
2022-11-17T15:20:53.880Z,984.62
2022-11-17T15:21:53.865Z,984.61
2022-11-17T15:22:55.139Z,984.62
2022-11-17T15:23:53.966Z,984.59
2022-11-17T15:24:53.767Z,984.61
2022-11-17T15:25:53.761Z,984.65
2022-11-17T15:26:55.956Z,984.66
2022-11-17T15:27:53.733Z,984.67
2022-11-17T15:28:53.712Z,984.68
2022-11-17T15:29:53.696Z,984.69
2022-11-17T15:30:53.715Z,984.75
2022-11-17T15:31:53.669Z,984.79
2022-11-17T15:32:53.723Z,984.79
2022-11-17T15:33:53.641Z,984.74
2022-11-17T15:34:53.660Z,984.74
2022-11-17T15:35:53.616Z,984.77
2022-11-17T15:36:53.601Z,984.77
2022-11-17T15:37:53.581Z,984.75
2022-11-17T15:38:53.574Z,984.79
2022-11-17T15:39:53.574Z,984.84
2022-11-17T15:40:53.540Z,984.82
2022-11-17T15:41:53.562Z,984.81
2022-11-17T15:42:53.519Z,984.82
2022-11-17T15:43:53.540Z,984.88
2022-11-17T15:44:53.683Z,984.84
2022-11-17T15:45:53.499Z,984.86
2022-11-17T15:46:53.478Z,984.84
2022-11-17T15:47:53.476Z,984.82
2022-11-17T15:48:53.439Z,984.83
2022-11-17T15:49:53.421Z,984.84
2022-11-17T15:50:53.419Z,984.82
2022-11-17T15:51:53.445Z,984.87
2022-11-17T15:53:08.858Z,984.82
2022-11-17T15:53:53.381Z,984.88
2022-11-17T15:54:53.345Z,984.84
2022-11-17T15:55:53.346Z,984.88
2022-11-17T15:56:53.334Z,984.92
2022-11-17T15:57:53.337Z,984.93
2022-11-17T15:58:53.313Z,984.95
2022-11-17T15:59:53.295Z,984.92
2022-11-17T16:00:53.307Z,984.91
2022-11-17T16:01:54.399Z,984.92
2022-11-17T16:02:58.455Z,984.92
2022-11-17T16:03:53.248Z,984.98
2022-11-17T16:04:53.209Z,984.96
2022-11-17T16:05:53.208Z,984.98
2022-11-17T16:06:53.270Z,984.96
2022-11-17T16:07:53.175Z,985.00
2022-11-17T16:08:53.229Z,984.95
2022-11-17T16:09:53.357Z,984.95
2022-11-17T16:10:56.292Z,984.99
2022-11-17T16:11:53.177Z,985.00
2022-11-17T16:12:54.184Z,985.01
2022-11-17T16:13:53.100Z,985.05
2022-11-17T16:14:53.073Z,985.00
2022-11-17T16:15:53.069Z,985.10
2022-11-17T16:16:53.068Z,985.09
2022-11-17T16:17:53.042Z,985.04
2022-11-17T16:18:53.029Z,985.05
2022-11-17T16:19:53.056Z,985.08
2022-11-17T16:20:53.094Z,985.12
2022-11-17T16:21:53.019Z,985.10
2022-11-17T16:22:52.971Z,985.13
2022-11-17T16:23:52.981Z,985.10
2022-11-17T16:24:52.970Z,985.13
2022-11-17T16:25:54.979Z,985.15
2022-11-17T16:26:52.941Z,985.14
2022-11-17T16:27:53.113Z,985.17
2022-11-17T16:28:52.938Z,985.19
2022-11-17T16:29:52.873Z,985.20
2022-11-17T16:30:52.884Z,985.21
2022-11-17T16:31:52.874Z,985.22
2022-11-17T16:32:52.915Z,985.20
2022-11-17T16:33:52.847Z,985.22
2022-11-17T16:34:52.799Z,985.18
2022-11-17T16:35:52.799Z,985.17
2022-11-17T16:36:52.797Z,985.21
2022-11-17T16:37:52.829Z,985.18
2022-11-17T16:39:00.944Z,985.21
2022-11-17T16:39:52.757Z,985.21
2022-11-17T16:40:52.733Z,985.20
2022-11-17T16:41:52.741Z,985.24
2022-11-17T16:42:52.707Z,985.20
2022-11-17T16:43:52.698Z,985.24
2022-11-17T16:44:52.732Z,985.25
2022-11-17T16:45:52.680Z,985.22
2022-11-17T16:46:52.673Z,985.25
2022-11-17T16:47:52.662Z,985.32
2022-11-17T16:48:52.828Z,985.31
2022-11-17T16:49:52.616Z,985.30
2022-11-17T16:50:54.909Z,985.37
2022-11-17T16:51:52.709Z,985.38
2022-11-17T16:52:52.581Z,985.35
2022-11-17T16:53:52.557Z,985.34
2022-11-17T16:54:52.550Z,985.36
2022-11-17T16:55:52.532Z,985.31
2022-11-17T16:56:52.531Z,985.27
2022-11-17T16:57:52.523Z,985.31
2022-11-17T16:58:52.498Z,985.26
2022-11-17T16:59:52.482Z,985.27
2022-11-17T17:00:52.465Z,985.28
2022-11-17T17:01:52.446Z,985.26
2022-11-17T17:02:52.533Z,985.31
2022-11-17T17:03:52.438Z,985.23
2022-11-17T17:04:52.607Z,985.26
2022-11-17T17:05:52.404Z,985.32
2022-11-17T17:07:13.587Z,985.30
2022-11-17T17:07:52.369Z,985.30
2022-11-17T17:12:38.624Z,985.33
2022-11-17T17:13:12.362Z,985.30
2022-11-17T17:14:13.190Z,985.36
2022-11-17T17:15:12.436Z,985.32
2022-11-17T17:52:36.777Z,985.71
2022-11-17T17:53:37.590Z,985.76
2022-11-17T18:01:28.690Z,985.90
2022-11-17T18:02:27.656Z,985.88
2022-11-17T18:03:27.698Z,985.88
2022-11-17T18:04:27.631Z,985.90
2022-11-17T18:05:27.633Z,985.87
2022-11-17T18:06:27.618Z,985.87
2022-11-17T18:07:27.631Z,985.86
2022-11-17T18:08:27.604Z,985.81
2022-11-17T18:09:27.561Z,985.85
2022-11-17T18:10:27.544Z,985.85
2022-11-17T18:11:27.529Z,985.86
2022-11-17T18:12:26.522Z,985.90
2022-11-17T18:13:27.528Z,985.86
2022-11-17T18:14:27.524Z,985.89
2022-11-17T18:15:27.481Z,985.90
2022-11-17T18:16:27.476Z,985.91
2022-11-17T18:17:27.450Z,985.96
2022-11-17T18:18:27.464Z,985.92
2022-11-17T18:19:32.738Z,985.88
2022-11-17T18:20:27.433Z,985.94
2022-11-17T18:21:27.407Z,985.92
2022-11-17T18:22:27.400Z,985.98
2022-11-17T18:23:27.383Z,985.94
2022-11-17T18:24:27.419Z,986.03
2022-11-17T18:25:27.560Z,985.99
2022-11-17T18:26:27.348Z,986.07
2022-11-17T18:27:27.327Z,986.08
2022-11-17T18:28:27.319Z,986.01
2022-11-17T18:29:27.308Z,986.04
2022-11-17T18:30:27.289Z,986.04
2022-11-17T18:31:27.270Z,986.04
2022-11-17T18:32:27.257Z,986.07
2022-11-17T18:33:27.261Z,986.06
2022-11-17T18:34:27.356Z,986.01
2022-11-17T18:35:27.217Z,986.04
2022-11-17T18:36:27.197Z,986.10
2022-11-17T18:37:27.197Z,986.07
2022-11-17T18:38:27.314Z,986.08
2022-11-17T18:39:27.185Z,986.06
2022-11-17T18:40:27.162Z,986.04
2022-11-17T18:41:27.136Z,986.09
2022-11-17T18:42:27.127Z,986.11
2022-11-17T18:43:27.109Z,986.13
2022-11-17T18:44:27.094Z,986.11
2022-11-17T18:45:27.081Z,986.12
2022-11-17T18:46:27.065Z,986.11
2022-11-17T18:47:27.072Z,986.14
2022-11-17T18:48:27.042Z,986.15
2022-11-17T18:49:27.040Z,986.17
2022-11-17T18:50:27.019Z,986.19
2022-11-17T18:51:27.006Z,986.22
2022-11-17T18:52:31.296Z,986.25
2022-11-17T18:53:26.972Z,986.29
2022-11-17T18:54:26.975Z,986.22
2022-11-17T18:55:26.942Z,986.22
2022-11-17T18:56:26.930Z,986.26
2022-11-17T18:57:26.918Z,986.26
2022-11-17T18:58:26.913Z,986.25
2022-11-17T18:59:26.894Z,986.26
2022-11-17T19:00:26.892Z,986.26
2022-11-17T19:01:29.303Z,986.28
2022-11-17T19:02:26.870Z,986.28
2022-11-17T19:03:26.843Z,986.27
2022-11-17T19:04:26.834Z,986.29
2022-11-17T19:05:26.809Z,986.30
2022-11-17T19:06:26.798Z,986.32
2022-11-17T19:07:26.840Z,986.32
2022-11-17T19:08:26.768Z,986.27
2022-11-17T19:09:26.773Z,986.29
2022-11-17T19:10:26.749Z,986.28
2022-11-17T19:11:26.742Z,986.28
2022-11-17T19:12:26.711Z,986.31
2022-11-17T19:13:26.705Z,986.33
2022-11-17T19:14:26.701Z,986.34
2022-11-17T19:15:26.678Z,986.36
2022-11-17T19:16:26.662Z,986.37
2022-11-17T19:17:26.657Z,986.39
2022-11-17T19:18:26.635Z,986.43
2022-11-17T19:19:26.646Z,986.42
2022-11-17T19:20:26.607Z,986.48
2022-11-17T19:21:26.615Z,986.49
2022-11-17T19:22:26.587Z,986.50
2022-11-17T19:23:26.567Z,986.50
2022-11-17T19:24:26.559Z,986.54
2022-11-17T19:25:26.548Z,986.51
2022-11-17T19:26:26.534Z,986.51
2022-11-17T19:27:26.499Z,986.59
2022-11-17T19:28:26.517Z,986.53
2022-11-17T19:29:26.475Z,986.50
2022-11-17T19:30:26.471Z,986.55
2022-11-17T19:31:26.549Z,986.59
2022-11-17T19:32:26.447Z,986.60
2022-11-17T19:33:26.431Z,986.61
2022-11-17T19:34:26.415Z,986.58
2022-11-17T19:35:26.418Z,986.60
2022-11-17T19:36:26.398Z,986.68
2022-11-17T19:37:26.377Z,986.66
2022-11-17T19:38:26.374Z,986.67
2022-11-17T19:39:26.350Z,986.69
2022-11-17T19:40:26.354Z,986.71
2022-11-17T19:41:26.324Z,986.74
2022-11-17T19:42:26.308Z,986.75